sensor_id;sensor_type;location;lat;lon;timestamp;P1;durP1;ratioP1;P2;durP2;ratioP2
19842;SDS011;10082;51.038;6.992;2023-02-15T00:01:32;23.23;;;19.50;;
19842;SDS011;10082;51.038;6.992;2023-02-15T00:04:00;24.37;;;18.93;;
19842;SDS011;10082;51.038;6.992;2023-02-15T00:06:27;23.67;;;19.80;;
19842;SDS011;10082;51.038;6.992;2023-02-15T00:08:55;26.37;;;20.80;;
19842;SDS011;10082;51.038;6.992;2023-02-15T00:11:22;25.07;;;19.77;;
19842;SDS011;10082;51.038;6.992;2023-02-15T00:14:05;25.97;;;20.30;;
19842;SDS011;10082;51.038;6.992;2023-02-15T00:16:33;24.00;;;19.83;;
19842;SDS011;10082;51.038;6.992;2023-02-15T00:19:01;25.97;;;20.17;;
19842;SDS011;10082;51.038;6.992;2023-02-15T00:21:28;27.93;;;22.27;;
19842;SDS011;10082;51.038;6.992;2023-02-15T00:23:57;27.43;;;21.90;;
19842;SDS011;10082;51.038;6.992;2023-02-15T00:26:25;26.73;;;21.07;;
19842;SDS011;10082;51.038;6.992;2023-02-15T00:28:53;24.90;;;20.00;;
19842;SDS011;10082;51.038;6.992;2023-02-15T00:31:22;25.97;;;20.43;;
19842;SDS011;10082;51.038;6.992;2023-02-15T00:33:49;27.00;;;21.40;;
19842;SDS011;10082;51.038;6.992;2023-02-15T00:36:17;26.53;;;21.00;;
19842;SDS011;10082;51.038;6.992;2023-02-15T00:38:47;26.77;;;21.30;;
19842;SDS011;10082;51.038;6.992;2023-02-15T00:41:15;28.93;;;21.97;;
19842;SDS011;10082;51.038;6.992;2023-02-15T00:43:43;27.40;;;20.70;;
19842;SDS011;10082;51.038;6.992;2023-02-15T00:46:11;25.73;;;21.10;;
19842;SDS011;10082;51.038;6.992;2023-02-15T00:48:42;27.93;;;21.07;;
19842;SDS011;10082;51.038;6.992;2023-02-15T00:51:10;27.53;;;21.63;;
19842;SDS011;10082;51.038;6.992;2023-02-15T00:53:37;25.93;;;21.10;;
19842;SDS011;10082;51.038;6.992;2023-02-15T00:56:04;27.87;;;21.20;;
19842;SDS011;10082;51.038;6.992;2023-02-15T00:58:31;28.77;;;21.77;;
19842;SDS011;10082;51.038;6.992;2023-02-15T01:01:02;27.47;;;21.40;;
19842;SDS011;10082;51.038;6.992;2023-02-15T01:03:30;29.80;;;22.97;;
19842;SDS011;10082;51.038;6.992;2023-02-15T01:06:00;27.67;;;21.30;;
19842;SDS011;10082;51.038;6.992;2023-02-15T01:08:28;25.80;;;20.73;;
19842;SDS011;10082;51.038;6.992;2023-02-15T01:10:55;26.33;;;21.67;;
19842;SDS011;10082;51.038;6.992;2023-02-15T01:13:23;26.40;;;20.40;;
19842;SDS011;10082;51.038;6.992;2023-02-15T01:15:53;25.33;;;20.73;;
19842;SDS011;10082;51.038;6.992;2023-02-15T01:18:21;27.17;;;20.70;;
19842;SDS011;10082;51.038;6.992;2023-02-15T01:20:48;27.23;;;21.57;;
19842;SDS011;10082;51.038;6.992;2023-02-15T01:23:17;27.60;;;20.83;;
19842;SDS011;10082;51.038;6.992;2023-02-15T01:25:45;26.50;;;21.40;;
19842;SDS011;10082;51.038;6.992;2023-02-15T01:28:12;29.00;;;21.23;;
19842;SDS011;10082;51.038;6.992;2023-02-15T01:30:40;27.53;;;21.50;;
19842;SDS011;10082;51.038;6.992;2023-02-15T01:33:07;29.20;;;23.27;;
19842;SDS011;10082;51.038;6.992;2023-02-15T01:35:43;29.27;;;22.37;;
19842;SDS011;10082;51.038;6.992;2023-02-15T01:38:10;25.90;;;20.70;;
19842;SDS011;10082;51.038;6.992;2023-02-15T01:40:39;28.40;;;21.87;;
19842;SDS011;10082;51.038;6.992;2023-02-15T01:43:09;29.50;;;22.03;;
19842;SDS011;10082;51.038;6.992;2023-02-15T01:45:37;26.47;;;21.67;;
19842;SDS011;10082;51.038;6.992;2023-02-15T01:48:05;27.70;;;21.87;;
19842;SDS011;10082;51.038;6.992;2023-02-15T01:50:48;27.30;;;20.83;;
19842;SDS011;10082;51.038;6.992;2023-02-15T01:53:20;27.07;;;21.57;;
19842;SDS011;10082;51.038;6.992;2023-02-15T01:55:54;31.07;;;22.20;;
19842;SDS011;10082;51.038;6.992;2023-02-15T01:58:26;26.70;;;21.90;;
19842;SDS011;10082;51.038;6.992;2023-02-15T02:00:56;28.10;;;21.87;;
19842;SDS011;10082;51.038;6.992;2023-02-15T02:03:30;28.67;;;21.73;;
19842;SDS011;10082;51.038;6.992;2023-02-15T02:06:05;29.97;;;22.70;;
19842;SDS011;10082;51.038;6.992;2023-02-15T02:08:32;28.87;;;21.53;;
19842;SDS011;10082;51.038;6.992;2023-02-15T02:11:01;30.50;;;22.87;;
19842;SDS011;10082;51.038;6.992;2023-02-15T02:13:28;29.33;;;22.63;;
19842;SDS011;10082;51.038;6.992;2023-02-15T02:15:57;29.30;;;22.10;;
19842;SDS011;10082;51.038;6.992;2023-02-15T02:18:34;31.30;;;22.43;;
19842;SDS011;10082;51.038;6.992;2023-02-15T02:24:34;28.70;;;21.47;;
19842;SDS011;10082;51.038;6.992;2023-02-15T02:36:01;30.17;;;22.60;;
19842;SDS011;10082;51.038;6.992;2023-02-15T02:38:38;34.97;;;23.03;;
19842;SDS011;10082;51.038;6.992;2023-02-15T02:41:12;30.50;;;22.30;;
19842;SDS011;10082;51.038;6.992;2023-02-15T02:43:47;30.87;;;22.13;;
19842;SDS011;10082;51.038;6.992;2023-02-15T02:46:20;31.27;;;23.87;;
19842;SDS011;10082;51.038;6.992;2023-02-15T02:48:52;32.13;;;24.67;;
19842;SDS011;10082;51.038;6.992;2023-02-15T02:51:19;32.80;;;23.73;;
19842;SDS011;10082;51.038;6.992;2023-02-15T02:53:49;29.77;;;23.67;;
19842;SDS011;10082;51.038;6.992;2023-02-15T02:56:20;32.77;;;23.97;;
19842;SDS011;10082;51.038;6.992;2023-02-15T02:58:52;31.57;;;23.27;;
19842;SDS011;10082;51.038;6.992;2023-02-15T03:01:27;31.93;;;23.60;;
19842;SDS011;10082;51.038;6.992;2023-02-15T03:04:00;32.23;;;23.20;;
19842;SDS011;10082;51.038;6.992;2023-02-15T03:06:33;31.00;;;22.93;;
19842;SDS011;10082;51.038;6.992;2023-02-15T03:09:06;33.80;;;23.53;;
19842;SDS011;10082;51.038;6.992;2023-02-15T03:11:41;33.27;;;23.53;;
19842;SDS011;10082;51.038;6.992;2023-02-15T03:14:12;31.37;;;22.90;;
19842;SDS011;10082;51.038;6.992;2023-02-15T03:16:41;33.93;;;24.23;;
19842;SDS011;10082;51.038;6.992;2023-02-15T03:19:14;32.40;;;23.13;;
19842;SDS011;10082;51.038;6.992;2023-02-15T03:21:46;33.90;;;23.93;;
19842;SDS011;10082;51.038;6.992;2023-02-15T03:24:23;34.83;;;24.93;;
19842;SDS011;10082;51.038;6.992;2023-02-15T03:26:54;33.53;;;23.53;;
19842;SDS011;10082;51.038;6.992;2023-02-15T03:29:23;32.73;;;22.73;;
19842;SDS011;10082;51.038;6.992;2023-02-15T03:31:53;34.43;;;24.70;;
19842;SDS011;10082;51.038;6.992;2023-02-15T03:34:28;31.53;;;23.17;;
19842;SDS011;10082;51.038;6.992;2023-02-15T03:36:56;34.07;;;24.27;;
19842;SDS011;10082;51.038;6.992;2023-02-15T03:42:14;31.57;;;22.73;;
19842;SDS011;10082;51.038;6.992;2023-02-15T03:44:47;30.70;;;23.13;;
19842;SDS011;10082;51.038;6.992;2023-02-15T03:47:22;33.33;;;24.03;;
19842;SDS011;10082;51.038;6.992;2023-02-15T03:49:55;34.77;;;24.20;;
19842;SDS011;10082;51.038;6.992;2023-02-15T03:52:27;31.27;;;23.03;;
19842;SDS011;10082;51.038;6.992;2023-02-15T03:54:57;34.27;;;23.70;;
19842;SDS011;10082;51.038;6.992;2023-02-15T03:57:25;32.50;;;22.30;;
19842;SDS011;10082;51.038;6.992;2023-02-15T04:00:12;32.50;;;23.43;;
19842;SDS011;10082;51.038;6.992;2023-02-15T04:03:11;31.83;;;23.43;;
19842;SDS011;10082;51.038;6.992;2023-02-15T04:05:48;32.93;;;23.33;;
19842;SDS011;10082;51.038;6.992;2023-02-15T04:08:15;32.87;;;24.20;;
19842;SDS011;10082;51.038;6.992;2023-02-15T04:10:42;35.30;;;24.57;;
19842;SDS011;10082;51.038;6.992;2023-02-15T04:13:17;33.47;;;22.70;;
19842;SDS011;10082;51.038;6.992;2023-02-15T04:15:44;36.37;;;24.93;;
19842;SDS011;10082;51.038;6.992;2023-02-15T04:18:29;33.17;;;23.37;;
19842;SDS011;10082;51.038;6.992;2023-02-15T04:21:15;33.63;;;23.73;;
19842;SDS011;10082;51.038;6.992;2023-02-15T04:23:59;32.30;;;22.47;;
19842;SDS011;10082;51.038;6.992;2023-02-15T04:26:43;33.90;;;22.60;;
19842;SDS011;10082;51.038;6.992;2023-02-15T04:29:11;36.40;;;24.50;;
19842;SDS011;10082;51.038;6.992;2023-02-15T04:31:38;31.60;;;23.00;;
19842;SDS011;10082;51.038;6.992;2023-02-15T04:34:05;31.80;;;23.30;;
19842;SDS011;10082;51.038;6.992;2023-02-15T04:36:33;33.57;;;23.60;;
19842;SDS011;10082;51.038;6.992;2023-02-15T04:39:00;34.37;;;23.57;;
19842;SDS011;10082;51.038;6.992;2023-02-15T04:41:28;32.97;;;23.23;;
19842;SDS011;10082;51.038;6.992;2023-02-15T04:43:54;33.13;;;23.63;;
19842;SDS011;10082;51.038;6.992;2023-02-15T04:46:22;34.43;;;22.63;;
19842;SDS011;10082;51.038;6.992;2023-02-15T04:48:49;31.97;;;23.37;;
19842;SDS011;10082;51.038;6.992;2023-02-15T04:51:16;31.77;;;22.87;;
19842;SDS011;10082;51.038;6.992;2023-02-15T04:53:45;33.27;;;23.00;;
19842;SDS011;10082;51.038;6.992;2023-02-15T04:56:12;30.73;;;22.80;;
19842;SDS011;10082;51.038;6.992;2023-02-15T04:58:39;32.90;;;23.23;;
19842;SDS011;10082;51.038;6.992;2023-02-15T05:01:07;33.53;;;23.53;;
19842;SDS011;10082;51.038;6.992;2023-02-15T05:03:34;34.27;;;24.13;;
19842;SDS011;10082;51.038;6.992;2023-02-15T05:06:02;34.53;;;24.03;;
19842;SDS011;10082;51.038;6.992;2023-02-15T05:08:29;35.73;;;24.13;;
19842;SDS011;10082;51.038;6.992;2023-02-15T05:10:58;31.33;;;22.03;;
19842;SDS011;10082;51.038;6.992;2023-02-15T05:13:25;33.50;;;23.57;;
19842;SDS011;10082;51.038;6.992;2023-02-15T05:15:53;35.20;;;23.87;;
19842;SDS011;10082;51.038;6.992;2023-02-15T05:18:20;34.90;;;23.77;;
19842;SDS011;10082;51.038;6.992;2023-02-15T05:20:48;31.37;;;22.53;;
19842;SDS011;10082;51.038;6.992;2023-02-15T05:23:15;35.37;;;24.33;;
19842;SDS011;10082;51.038;6.992;2023-02-15T05:25:46;36.10;;;24.77;;
19842;SDS011;10082;51.038;6.992;2023-02-15T05:28:32;31.67;;;22.40;;
19842;SDS011;10082;51.038;6.992;2023-02-15T05:31:02;33.57;;;23.33;;
19842;SDS011;10082;51.038;6.992;2023-02-15T05:33:31;34.33;;;23.20;;
19842;SDS011;10082;51.038;6.992;2023-02-15T05:35:58;30.63;;;22.33;;
19842;SDS011;10082;51.038;6.992;2023-02-15T05:38:26;33.53;;;23.33;;
19842;SDS011;10082;51.038;6.992;2023-02-15T05:40:53;33.60;;;23.17;;
19842;SDS011;10082;51.038;6.992;2023-02-15T05:43:20;33.77;;;23.10;;
19842;SDS011;10082;51.038;6.992;2023-02-15T05:45:50;32.63;;;22.87;;
19842;SDS011;10082;51.038;6.992;2023-02-15T05:48:19;30.80;;;21.27;;
19842;SDS011;10082;51.038;6.992;2023-02-15T05:50:56;32.63;;;23.23;;
19842;SDS011;10082;51.038;6.992;2023-02-15T05:53:23;32.27;;;22.47;;
19842;SDS011;10082;51.038;6.992;2023-02-15T05:55:50;29.97;;;22.10;;
19842;SDS011;10082;51.038;6.992;2023-02-15T05:58:18;31.47;;;21.50;;
19842;SDS011;10082;51.038;6.992;2023-02-15T06:00:45;29.70;;;20.83;;
19842;SDS011;10082;51.038;6.992;2023-02-15T06:03:13;31.23;;;21.93;;
19842;SDS011;10082;51.038;6.992;2023-02-15T06:05:40;30.73;;;20.67;;
19842;SDS011;10082;51.038;6.992;2023-02-15T06:08:07;30.37;;;21.60;;
19842;SDS011;10082;51.038;6.992;2023-02-15T06:10:34;30.63;;;21.53;;
19842;SDS011;10082;51.038;6.992;2023-02-15T06:13:01;29.70;;;21.43;;
19842;SDS011;10082;51.038;6.992;2023-02-15T06:15:28;30.90;;;22.50;;
19842;SDS011;10082;51.038;6.992;2023-02-15T06:17:55;30.80;;;21.80;;
19842;SDS011;10082;51.038;6.992;2023-02-15T06:20:23;31.13;;;22.17;;
19842;SDS011;10082;51.038;6.992;2023-02-15T06:22:51;28.93;;;20.97;;
19842;SDS011;10082;51.038;6.992;2023-02-15T06:25:18;31.10;;;21.07;;
19842;SDS011;10082;51.038;6.992;2023-02-15T06:27:44;29.43;;;20.50;;
19842;SDS011;10082;51.038;6.992;2023-02-15T06:30:12;31.27;;;21.40;;
19842;SDS011;10082;51.038;6.992;2023-02-15T06:32:40;30.43;;;21.43;;
19842;SDS011;10082;51.038;6.992;2023-02-15T06:35:07;29.67;;;20.70;;
19842;SDS011;10082;51.038;6.992;2023-02-15T06:37:37;30.97;;;21.10;;
19842;SDS011;10082;51.038;6.992;2023-02-15T06:40:05;27.87;;;20.47;;
19842;SDS011;10082;51.038;6.992;2023-02-15T06:42:33;30.77;;;21.67;;
19842;SDS011;10082;51.038;6.992;2023-02-15T06:45:00;30.07;;;20.67;;
19842;SDS011;10082;51.038;6.992;2023-02-15T06:47:27;29.10;;;20.73;;
19842;SDS011;10082;51.038;6.992;2023-02-15T06:49:54;29.30;;;21.07;;
19842;SDS011;10082;51.038;6.992;2023-02-15T06:52:22;33.23;;;22.17;;
19842;SDS011;10082;51.038;6.992;2023-02-15T06:54:51;31.70;;;21.40;;
19842;SDS011;10082;51.038;6.992;2023-02-15T06:57:18;29.83;;;21.90;;
19842;SDS011;10082;51.038;6.992;2023-02-15T06:59:45;27.27;;;19.20;;
19842;SDS011;10082;51.038;6.992;2023-02-15T07:02:13;28.57;;;20.30;;
19842;SDS011;10082;51.038;6.992;2023-02-15T07:04:40;28.10;;;20.73;;
19842;SDS011;10082;51.038;6.992;2023-02-15T07:07:07;29.07;;;20.87;;
19842;SDS011;10082;51.038;6.992;2023-02-15T07:09:36;29.57;;;20.87;;
19842;SDS011;10082;51.038;6.992;2023-02-15T07:12:05;30.10;;;21.07;;
19842;SDS011;10082;51.038;6.992;2023-02-15T07:14:50;26.73;;;20.27;;
19842;SDS011;10082;51.038;6.992;2023-02-15T07:17:17;29.37;;;20.30;;
19842;SDS011;10082;51.038;6.992;2023-02-15T07:19:44;28.37;;;20.40;;
19842;SDS011;10082;51.038;6.992;2023-02-15T07:22:11;26.60;;;19.67;;
19842;SDS011;10082;51.038;6.992;2023-02-15T07:24:38;27.33;;;19.67;;
19842;SDS011;10082;51.038;6.992;2023-02-15T07:27:07;25.80;;;19.47;;
19842;SDS011;10082;51.038;6.992;2023-02-15T07:29:34;25.37;;;19.37;;
19842;SDS011;10082;51.038;6.992;2023-02-15T07:32:01;24.50;;;18.43;;
19842;SDS011;10082;51.038;6.992;2023-02-15T07:34:28;22.77;;;18.13;;
19842;SDS011;10082;51.038;6.992;2023-02-15T07:36:55;22.10;;;17.20;;
19842;SDS011;10082;51.038;6.992;2023-02-15T07:39:22;21.07;;;17.20;;
19842;SDS011;10082;51.038;6.992;2023-02-15T07:41:49;18.40;;;16.13;;
19842;SDS011;10082;51.038;6.992;2023-02-15T07:44:18;17.40;;;13.97;;
19842;SDS011;10082;51.038;6.992;2023-02-15T07:46:45;16.20;;;14.40;;
19842;SDS011;10082;51.038;6.992;2023-02-15T07:49:12;16.87;;;14.40;;
19842;SDS011;10082;51.038;6.992;2023-02-15T07:51:40;18.40;;;15.27;;
19842;SDS011;10082;51.038;6.992;2023-02-15T07:54:07;14.90;;;13.30;;
19842;SDS011;10082;51.038;6.992;2023-02-15T07:56:34;15.13;;;13.10;;
19842;SDS011;10082;51.038;6.992;2023-02-15T07:59:01;15.17;;;13.20;;
19842;SDS011;10082;51.038;6.992;2023-02-15T08:01:32;14.23;;;12.70;;
19842;SDS011;10082;51.038;6.992;2023-02-15T08:04:01;14.60;;;13.10;;
19842;SDS011;10082;51.038;6.992;2023-02-15T08:06:29;14.97;;;13.47;;
19842;SDS011;10082;51.038;6.992;2023-02-15T08:08:58;13.90;;;12.40;;
19842;SDS011;10082;51.038;6.992;2023-02-15T08:11:26;14.20;;;12.70;;
19842;SDS011;10082;51.038;6.992;2023-02-15T08:14:03;14.43;;;12.67;;
19842;SDS011;10082;51.038;6.992;2023-02-15T08:16:34;14.47;;;12.90;;
19842;SDS011;10082;51.038;6.992;2023-02-15T08:19:03;14.67;;;13.17;;
19842;SDS011;10082;51.038;6.992;2023-02-15T08:21:33;14.63;;;13.07;;
19842;SDS011;10082;51.038;6.992;2023-02-15T08:24:02;14.40;;;12.33;;
19842;SDS011;10082;51.038;6.992;2023-02-15T08:26:30;13.17;;;11.80;;
19842;SDS011;10082;51.038;6.992;2023-02-15T08:28:58;13.50;;;12.07;;
19842;SDS011;10082;51.038;6.992;2023-02-15T08:31:26;12.98;;;11.57;;
19842;SDS011;10082;51.038;6.992;2023-02-15T08:33:55;13.75;;;11.98;;
19842;SDS011;10082;51.038;6.992;2023-02-15T08:36:23;13.73;;;12.02;;
19842;SDS011;10082;51.038;6.992;2023-02-15T08:38:52;12.63;;;11.40;;
19842;SDS011;10082;51.038;6.992;2023-02-15T08:41:20;12.57;;;11.27;;
19842;SDS011;10082;51.038;6.992;2023-02-15T08:43:49;12.68;;;11.38;;
19842;SDS011;10082;51.038;6.992;2023-02-15T08:46:18;13.07;;;11.55;;
19842;SDS011;10082;51.038;6.992;2023-02-15T08:48:46;12.50;;;11.20;;
19842;SDS011;10082;51.038;6.992;2023-02-15T08:51:16;12.30;;;11.00;;
19842;SDS011;10082;51.038;6.992;2023-02-15T08:53:44;11.77;;;10.67;;
19842;SDS011;10082;51.038;6.992;2023-02-15T08:56:14;13.23;;;10.60;;
19842;SDS011;10082;51.038;6.992;2023-02-15T08:58:42;12.70;;;11.38;;
19842;SDS011;10082;51.038;6.992;2023-02-15T09:01:10;12.25;;;10.93;;
19842;SDS011;10082;51.038;6.992;2023-02-15T09:03:37;12.98;;;10.45;;
19842;SDS011;10082;51.038;6.992;2023-02-15T09:06:05;11.75;;;10.32;;
19842;SDS011;10082;51.038;6.992;2023-02-15T09:08:34;11.47;;;10.27;;
19842;SDS011;10082;51.038;6.992;2023-02-15T09:11:04;11.57;;;10.38;;
19842;SDS011;10082;51.038;6.992;2023-02-15T09:13:32;10.80;;;9.68;;
19842;SDS011;10082;51.038;6.992;2023-02-15T09:16:02;11.43;;;10.23;;
19842;SDS011;10082;51.038;6.992;2023-02-15T09:18:32;12.80;;;10.52;;
19842;SDS011;10082;51.038;6.992;2023-02-15T09:21:09;11.60;;;10.43;;
19842;SDS011;10082;51.038;6.992;2023-02-15T09:23:40;12.30;;;10.20;;
19842;SDS011;10082;51.038;6.992;2023-02-15T09:26:09;11.70;;;10.50;;
19842;SDS011;10082;51.038;6.992;2023-02-15T09:28:37;11.07;;;10.00;;
19842;SDS011;10082;51.038;6.992;2023-02-15T09:31:09;11.10;;;9.95;;
19842;SDS011;10082;51.038;6.992;2023-02-15T09:33:37;12.85;;;10.43;;
19842;SDS011;10082;51.038;6.992;2023-02-15T09:36:12;11.00;;;9.88;;
19842;SDS011;10082;51.038;6.992;2023-02-15T09:38:42;11.70;;;10.50;;
19842;SDS011;10082;51.038;6.992;2023-02-15T09:41:14;11.10;;;10.00;;
19842;SDS011;10082;51.038;6.992;2023-02-15T09:43:53;10.80;;;9.70;;
19842;SDS011;10082;51.038;6.992;2023-02-15T09:46:34;11.38;;;10.18;;
19842;SDS011;10082;51.038;6.992;2023-02-15T09:49:09;10.73;;;9.55;;
19842;SDS011;10082;51.038;6.992;2023-02-15T09:51:53;12.50;;;11.20;;
19842;SDS011;10082;51.038;6.992;2023-02-15T09:54:44;11.73;;;10.50;;
19842;SDS011;10082;51.038;6.992;2023-02-15T09:57:23;11.52;;;10.32;;
19842;SDS011;10082;51.038;6.992;2023-02-15T09:59:58;10.48;;;9.48;;
19842;SDS011;10082;51.038;6.992;2023-02-15T10:02:41;10.85;;;9.75;;
19842;SDS011;10082;51.038;6.992;2023-02-15T10:05:23;11.85;;;9.98;;
19842;SDS011;10082;51.038;6.992;2023-02-15T10:08:11;10.88;;;9.77;;
19842;SDS011;10082;51.038;6.992;2023-02-15T10:10:56;10.63;;;9.57;;
19842;SDS011;10082;51.038;6.992;2023-02-15T10:13:49;10.50;;;9.40;;
19842;SDS011;10082;51.038;6.992;2023-02-15T10:16:26;10.93;;;9.65;;
19842;SDS011;10082;51.038;6.992;2023-02-15T10:19:04;10.43;;;9.43;;
19842;SDS011;10082;51.038;6.992;2023-02-15T10:21:42;11.40;;;10.20;;
19842;SDS011;10082;51.038;6.992;2023-02-15T10:24:24;12.00;;;10.43;;
19842;SDS011;10082;51.038;6.992;2023-02-15T10:27:07;9.98;;;8.98;;
19842;SDS011;10082;51.038;6.992;2023-02-15T10:29:39;11.10;;;10.00;;
19842;SDS011;10082;51.038;6.992;2023-02-15T10:32:16;10.45;;;9.45;;
19842;SDS011;10082;51.038;6.992;2023-02-15T10:34:50;11.40;;;10.20;;
19842;SDS011;10082;51.038;6.992;2023-02-15T10:37:28;10.70;;;9.60;;
19842;SDS011;10082;51.038;6.992;2023-02-15T10:40:11;10.57;;;9.40;;
19842;SDS011;10082;51.038;6.992;2023-02-15T10:42:53;10.80;;;9.65;;
19842;SDS011;10082;51.038;6.992;2023-02-15T10:45:35;10.57;;;9.45;;
19842;SDS011;10082;51.038;6.992;2023-02-15T10:48:27;11.02;;;9.63;;
19842;SDS011;10082;51.038;6.992;2023-02-15T10:51:18;11.02;;;9.93;;
19842;SDS011;10082;51.038;6.992;2023-02-15T10:53:56;9.88;;;8.88;;
19842;SDS011;10082;51.038;6.992;2023-02-15T10:56:32;11.48;;;9.35;;
19842;SDS011;10082;51.038;6.992;2023-02-15T10:59:13;11.60;;;10.40;;
19842;SDS011;10082;51.038;6.992;2023-02-15T11:01:53;10.85;;;9.75;;
19842;SDS011;10082;51.038;6.992;2023-02-15T11:04:33;10.70;;;9.60;;
19842;SDS011;10082;51.038;6.992;2023-02-15T11:07:15;10.82;;;9.73;;
19842;SDS011;10082;51.038;6.992;2023-02-15T11:09:47;11.05;;;9.95;;
19842;SDS011;10082;51.038;6.992;2023-02-15T11:12:19;10.98;;;9.90;;
19842;SDS011;10082;51.038;6.992;2023-02-15T11:14:52;10.68;;;9.57;;
19842;SDS011;10082;51.038;6.992;2023-02-15T11:17:26;10.90;;;9.80;;
19842;SDS011;10082;51.038;6.992;2023-02-15T11:20:02;10.30;;;9.23;;
19842;SDS011;10082;51.038;6.992;2023-02-15T11:22:41;10.27;;;9.25;;
19842;SDS011;10082;51.038;6.992;2023-02-15T11:25:14;10.65;;;9.55;;
19842;SDS011;10082;51.038;6.992;2023-02-15T11:27:43;10.25;;;9.27;;
19842;SDS011;10082;51.038;6.992;2023-02-15T11:30:16;10.63;;;9.55;;
19842;SDS011;10082;51.038;6.992;2023-02-15T11:32:46;10.88;;;9.10;;
19842;SDS011;10082;51.038;6.992;2023-02-15T11:35:18;10.45;;;9.43;;
19842;SDS011;10082;51.038;6.992;2023-02-15T11:37:50;10.80;;;9.70;;
19842;SDS011;10082;51.038;6.992;2023-02-15T11:40:23;10.35;;;9.35;;
19842;SDS011;10082;51.038;6.992;2023-02-15T11:42:53;10.40;;;9.40;;
19842;SDS011;10082;51.038;6.992;2023-02-15T11:45:25;10.60;;;9.38;;
19842;SDS011;10082;51.038;6.992;2023-02-15T11:47:54;10.93;;;9.25;;
19842;SDS011;10082;51.038;6.992;2023-02-15T11:50:23;10.07;;;9.15;;
19842;SDS011;10082;51.038;6.992;2023-02-15T11:52:52;10.95;;;9.85;;
19842;SDS011;10082;51.038;6.992;2023-02-15T11:55:28;9.77;;;8.77;;
19842;SDS011;10082;51.038;6.992;2023-02-15T11:57:57;10.75;;;9.65;;
19842;SDS011;10082;51.038;6.992;2023-02-15T12:00:34;12.23;;;9.13;;
19842;SDS011;10082;51.038;6.992;2023-02-15T12:03:09;10.95;;;9.85;;
19842;SDS011;10082;51.038;6.992;2023-02-15T12:05:42;10.23;;;9.13;;
19842;SDS011;10082;51.038;6.992;2023-02-15T12:08:15;10.07;;;9.07;;
19842;SDS011;10082;51.038;6.992;2023-02-15T12:10:46;11.43;;;10.23;;
19842;SDS011;10082;51.038;6.992;2023-02-15T12:13:24;10.55;;;9.32;;
19842;SDS011;10082;51.038;6.992;2023-02-15T12:15:53;10.52;;;9.23;;
19842;SDS011;10082;51.038;6.992;2023-02-15T12:18:33;11.27;;;8.95;;
19842;SDS011;10082;51.038;6.992;2023-02-15T12:21:04;10.18;;;9.18;;
19842;SDS011;10082;51.038;6.992;2023-02-15T12:23:33;10.43;;;9.43;;
19842;SDS011;10082;51.038;6.992;2023-02-15T12:26:06;10.70;;;9.60;;
19842;SDS011;10082;51.038;6.992;2023-02-15T12:28:34;11.60;;;9.98;;
19842;SDS011;10082;51.038;6.992;2023-02-15T12:31:07;11.07;;;9.98;;
19842;SDS011;10082;51.038;6.992;2023-02-15T12:33:45;10.27;;;9.05;;
19842;SDS011;10082;51.038;6.992;2023-02-15T12:36:15;11.57;;;10.00;;
19842;SDS011;10082;51.038;6.992;2023-02-15T12:38:54;9.85;;;8.85;;
19842;SDS011;10082;51.038;6.992;2023-02-15T12:41:30;11.30;;;10.20;;
19842;SDS011;10082;51.038;6.992;2023-02-15T12:44:04;10.45;;;9.40;;
19842;SDS011;10082;51.038;6.992;2023-02-15T12:46:34;9.60;;;8.70;;
19842;SDS011;10082;51.038;6.992;2023-02-15T12:49:04;10.55;;;9.48;;
19842;SDS011;10082;51.038;6.992;2023-02-15T12:51:44;9.45;;;8.55;;
19842;SDS011;10082;51.038;6.992;2023-02-15T12:57:13;10.55;;;9.45;;
19842;SDS011;10082;51.038;6.992;2023-02-15T12:59:52;10.52;;;9.52;;
19842;SDS011;10082;51.038;6.992;2023-02-15T13:02:23;11.07;;;9.98;;
19842;SDS011;10082;51.038;6.992;2023-02-15T13:04:52;10.20;;;9.18;;
19842;SDS011;10082;51.038;6.992;2023-02-15T13:07:20;10.70;;;9.45;;
19842;SDS011;10082;51.038;6.992;2023-02-15T13:09:47;10.35;;;9.23;;
19842;SDS011;10082;51.038;6.992;2023-02-15T13:15:22;10.52;;;9.38;;
19842;SDS011;10082;51.038;6.992;2023-02-15T13:17:54;10.93;;;9.60;;
19842;SDS011;10082;51.038;6.992;2023-02-15T13:20:22;10.27;;;9.23;;
19842;SDS011;10082;51.038;6.992;2023-02-15T13:22:52;11.32;;;10.00;;
19842;SDS011;10082;51.038;6.992;2023-02-15T13:25:24;10.65;;;9.60;;
19842;SDS011;10082;51.038;6.992;2023-02-15T13:27:56;10.25;;;9.18;;
19842;SDS011;10082;51.038;6.992;2023-02-15T13:30:28;10.50;;;9.38;;
19842;SDS011;10082;51.038;6.992;2023-02-15T13:33:02;10.95;;;9.63;;
19842;SDS011;10082;51.038;6.992;2023-02-15T13:35:34;10.77;;;9.65;;
19842;SDS011;10082;51.038;6.992;2023-02-15T13:38:13;10.43;;;9.43;;
19842;SDS011;10082;51.038;6.992;2023-02-15T13:40:48;11.95;;;9.88;;
19842;SDS011;10082;51.038;6.992;2023-02-15T13:43:24;11.00;;;9.32;;
19842;SDS011;10082;51.038;6.992;2023-02-15T13:46:04;12.30;;;8.90;;
19842;SDS011;10082;51.038;6.992;2023-02-15T13:48:41;13.30;;;8.55;;
19842;SDS011;10082;51.038;6.992;2023-02-15T13:51:15;10.60;;;8.07;;
19842;SDS011;10082;51.038;6.992;2023-02-15T13:56:49;10.35;;;7.90;;
19842;SDS011;10082;51.038;6.992;2023-02-15T14:02:30;11.25;;;7.93;;
19842;SDS011;10082;51.038;6.992;2023-02-15T14:05:18;10.32;;;8.23;;
19842;SDS011;10082;51.038;6.992;2023-02-15T14:08:04;11.25;;;8.23;;
19842;SDS011;10082;51.038;6.992;2023-02-15T14:10:41;11.38;;;8.25;;
19842;SDS011;10082;51.038;6.992;2023-02-15T14:16:24;9.52;;;7.72;;
19842;SDS011;10082;51.038;6.992;2023-02-15T14:19:02;13.82;;;9.15;;
19842;SDS011;10082;51.038;6.992;2023-02-15T14:21:40;11.43;;;8.63;;
19842;SDS011;10082;51.038;6.992;2023-02-15T14:24:15;10.30;;;8.38;;
19842;SDS011;10082;51.038;6.992;2023-02-15T14:26:52;10.07;;;8.80;;
19842;SDS011;10082;51.038;6.992;2023-02-15T14:29:27;11.43;;;8.93;;
19842;SDS011;10082;51.038;6.992;2023-02-15T14:32:08;11.32;;;8.48;;
19842;SDS011;10082;51.038;6.992;2023-02-15T14:34:41;10.25;;;8.50;;
19842;SDS011;10082;51.038;6.992;2023-02-15T14:37:13;11.45;;;9.45;;
19842;SDS011;10082;51.038;6.992;2023-02-15T14:39:47;11.18;;;8.60;;
19842;SDS011;10082;51.038;6.992;2023-02-15T14:42:39;12.55;;;9.07;;
19842;SDS011;10082;51.038;6.992;2023-02-15T14:45:15;11.35;;;8.93;;
19842;SDS011;10082;51.038;6.992;2023-02-15T14:47:48;11.45;;;8.85;;
19842;SDS011;10082;51.038;6.992;2023-02-15T14:50:36;10.40;;;8.82;;
19842;SDS011;10082;51.038;6.992;2023-02-15T14:53:17;11.73;;;9.40;;
19842;SDS011;10082;51.038;6.992;2023-02-15T14:56:04;9.90;;;8.25;;
19842;SDS011;10082;51.038;6.992;2023-02-15T14:58:33;11.32;;;8.02;;
19842;SDS011;10082;51.038;6.992;2023-02-15T15:01:03;11.93;;;7.88;;
19842;SDS011;10082;51.038;6.992;2023-02-15T15:03:32;12.95;;;8.75;;
19842;SDS011;10082;51.038;6.992;2023-02-15T15:06:01;10.55;;;8.18;;
19842;SDS011;10082;51.038;6.992;2023-02-15T15:08:33;12.85;;;8.45;;
19842;SDS011;10082;51.038;6.992;2023-02-15T15:14:05;11.50;;;8.85;;
19842;SDS011;10082;51.038;6.992;2023-02-15T15:16:48;9.90;;;7.88;;
19842;SDS011;10082;51.038;6.992;2023-02-15T15:22:23;10.43;;;8.40;;
19842;SDS011;10082;51.038;6.992;2023-02-15T15:24:54;11.35;;;8.77;;
19842;SDS011;10082;51.038;6.992;2023-02-15T15:27:41;10.65;;;8.40;;
19842;SDS011;10082;51.038;6.992;2023-02-15T15:40:00;13.85;;;8.20;;